sensor_id;sensor_type;location;lat;lon;timestamp;P1;durP1;ratioP1;P2;durP2;ratioP2
3567;SDS011;1798;48.486;9.232;2024-03-17T00:00:55;19.50;;;9.00;;
3567;SDS011;1798;48.486;9.232;2024-03-17T00:03:23;18.57;;;9.60;;
3567;SDS011;1798;48.486;9.232;2024-03-17T00:05:55;23.47;;;9.07;;
3567;SDS011;1798;48.486;9.232;2024-03-17T00:08:23;20.10;;;9.27;;
3567;SDS011;1798;48.486;9.232;2024-03-17T00:10:49;14.90;;;8.63;;
3567;SDS011;1798;48.486;9.232;2024-03-17T00:13:16;22.33;;;8.00;;
3567;SDS011;1798;48.486;9.232;2024-03-17T00:15:42;13.67;;;7.17;;
3567;SDS011;1798;48.486;9.232;2024-03-17T00:18:08;16.33;;;8.60;;
3567;SDS011;1798;48.486;9.232;2024-03-17T00:20:34;15.57;;;7.00;;
3567;SDS011;1798;48.486;9.232;2024-03-17T00:23:02;10.90;;;7.30;;
3567;SDS011;1798;48.486;9.232;2024-03-17T00:25:28;10.60;;;6.60;;
3567;SDS011;1798;48.486;9.232;2024-03-17T00:27:55;15.40;;;8.10;;
3567;SDS011;1798;48.486;9.232;2024-03-17T00:30:22;12.93;;;6.50;;
3567;SDS011;1798;48.486;9.232;2024-03-17T00:32:49;10.67;;;6.60;;
3567;SDS011;1798;48.486;9.232;2024-03-17T00:35:14;15.20;;;6.63;;
3567;SDS011;1798;48.486;9.232;2024-03-17T00:37:45;11.37;;;6.60;;
3567;SDS011;1798;48.486;9.232;2024-03-17T00:40:12;10.20;;;7.20;;
3567;SDS011;1798;48.486;9.232;2024-03-17T00:42:39;12.67;;;6.00;;
3567;SDS011;1798;48.486;9.232;2024-03-17T00:45:05;18.23;;;7.27;;
3567;SDS011;1798;48.486;9.232;2024-03-17T00:47:32;12.43;;;5.80;;
3567;SDS011;1798;48.486;9.232;2024-03-17T00:49:58;21.33;;;8.80;;
3567;SDS011;1798;48.486;9.232;2024-03-17T00:52:24;12.97;;;7.10;;
3567;SDS011;1798;48.486;9.232;2024-03-17T00:54:50;11.70;;;6.30;;
3567;SDS011;1798;48.486;9.232;2024-03-17T00:57:18;21.20;;;6.17;;
3567;SDS011;1798;48.486;9.232;2024-03-17T00:59:43;14.27;;;6.17;;
3567;SDS011;1798;48.486;9.232;2024-03-17T01:02:10;15.77;;;6.53;;
3567;SDS011;1798;48.486;9.232;2024-03-17T01:04:37;10.47;;;5.73;;
3567;SDS011;1798;48.486;9.232;2024-03-17T01:07:04;12.67;;;6.93;;
3567;SDS011;1798;48.486;9.232;2024-03-17T01:09:29;16.00;;;6.63;;
3567;SDS011;1798;48.486;9.232;2024-03-17T01:11:56;14.53;;;6.90;;
3567;SDS011;1798;48.486;9.232;2024-03-17T01:14:23;17.23;;;6.83;;
3567;SDS011;1798;48.486;9.232;2024-03-17T01:16:50;11.27;;;7.10;;
3567;SDS011;1798;48.486;9.232;2024-03-17T01:19:16;12.63;;;6.87;;
3567;SDS011;1798;48.486;9.232;2024-03-17T01:21:42;13.23;;;6.40;;
3567;SDS011;1798;48.486;9.232;2024-03-17T01:24:08;10.27;;;5.80;;
3567;SDS011;1798;48.486;9.232;2024-03-17T01:26:34;10.83;;;6.07;;
3567;SDS011;1798;48.486;9.232;2024-03-17T01:29:00;9.83;;;6.23;;
3567;SDS011;1798;48.486;9.232;2024-03-17T01:31:29;9.07;;;5.27;;
3567;SDS011;1798;48.486;9.232;2024-03-17T01:33:54;15.00;;;6.03;;
3567;SDS011;1798;48.486;9.232;2024-03-17T01:36:21;10.50;;;5.77;;
3567;SDS011;1798;48.486;9.232;2024-03-17T01:38:46;9.27;;;6.23;;
3567;SDS011;1798;48.486;9.232;2024-03-17T01:41:13;10.50;;;7.00;;
3567;SDS011;1798;48.486;9.232;2024-03-17T01:43:39;11.63;;;6.40;;
3567;SDS011;1798;48.486;9.232;2024-03-17T01:46:05;9.50;;;6.17;;
3567;SDS011;1798;48.486;9.232;2024-03-17T01:48:33;13.87;;;6.40;;
3567;SDS011;1798;48.486;9.232;2024-03-17T01:51:00;15.93;;;5.30;;
3567;SDS011;1798;48.486;9.232;2024-03-17T01:53:28;11.17;;;5.83;;
3567;SDS011;1798;48.486;9.232;2024-03-17T01:55:54;7.37;;;5.10;;
3567;SDS011;1798;48.486;9.232;2024-03-17T01:58:23;11.17;;;6.13;;
3567;SDS011;1798;48.486;9.232;2024-03-17T02:00:50;7.80;;;4.80;;
3567;SDS011;1798;48.486;9.232;2024-03-17T02:03:17;8.00;;;5.30;;
3567;SDS011;1798;48.486;9.232;2024-03-17T02:05:45;9.40;;;5.70;;
3567;SDS011;1798;48.486;9.232;2024-03-17T02:08:11;7.90;;;5.20;;
3567;SDS011;1798;48.486;9.232;2024-03-17T02:10:37;9.27;;;5.20;;
3567;SDS011;1798;48.486;9.232;2024-03-17T02:13:03;9.90;;;5.63;;
3567;SDS011;1798;48.486;9.232;2024-03-17T02:15:30;10.03;;;5.40;;
3567;SDS011;1798;48.486;9.232;2024-03-17T02:17:56;11.63;;;5.90;;
3567;SDS011;1798;48.486;9.232;2024-03-17T02:20:23;8.60;;;5.80;;
3567;SDS011;1798;48.486;9.232;2024-03-17T02:23:10;12.53;;;6.10;;
3567;SDS011;1798;48.486;9.232;2024-03-17T02:25:37;8.73;;;5.03;;
3567;SDS011;1798;48.486;9.232;2024-03-17T02:28:03;9.60;;;5.90;;
3567;SDS011;1798;48.486;9.232;2024-03-17T02:30:29;13.47;;;5.50;;
3567;SDS011;1798;48.486;9.232;2024-03-17T02:32:55;11.43;;;6.10;;
3567;SDS011;1798;48.486;9.232;2024-03-17T02:35:22;11.87;;;6.77;;
3567;SDS011;1798;48.486;9.232;2024-03-17T02:37:48;9.03;;;5.40;;
3567;SDS011;1798;48.486;9.232;2024-03-17T02:40:16;8.90;;;5.47;;
3567;SDS011;1798;48.486;9.232;2024-03-17T02:42:43;7.30;;;5.20;;
3567;SDS011;1798;48.486;9.232;2024-03-17T02:45:10;8.77;;;5.53;;
3567;SDS011;1798;48.486;9.232;2024-03-17T02:47:37;13.97;;;6.10;;
3567;SDS011;1798;48.486;9.232;2024-03-17T02:50:04;8.80;;;5.20;;
3567;SDS011;1798;48.486;9.232;2024-03-17T02:52:31;7.33;;;4.77;;
3567;SDS011;1798;48.486;9.232;2024-03-17T02:54:58;10.40;;;5.53;;
3567;SDS011;1798;48.486;9.232;2024-03-17T02:57:27;9.83;;;5.67;;
3567;SDS011;1798;48.486;9.232;2024-03-17T02:59:54;8.43;;;4.93;;
3567;SDS011;1798;48.486;9.232;2024-03-17T03:02:21;12.20;;;4.93;;
3567;SDS011;1798;48.486;9.232;2024-03-17T03:04:48;12.63;;;5.13;;
3567;SDS011;1798;48.486;9.232;2024-03-17T03:07:14;9.07;;;4.73;;
3567;SDS011;1798;48.486;9.232;2024-03-17T03:09:41;10.80;;;5.73;;
3567;SDS011;1798;48.486;9.232;2024-03-17T03:12:08;18.90;;;4.57;;
3567;SDS011;1798;48.486;9.232;2024-03-17T03:14:36;8.17;;;4.63;;
3567;SDS011;1798;48.486;9.232;2024-03-17T03:17:02;12.50;;;5.20;;
3567;SDS011;1798;48.486;9.232;2024-03-17T03:19:29;8.63;;;4.87;;
3567;SDS011;1798;48.486;9.232;2024-03-17T03:21:56;7.40;;;4.60;;
3567;SDS011;1798;48.486;9.232;2024-03-17T03:24:22;10.10;;;4.87;;
3567;SDS011;1798;48.486;9.232;2024-03-17T03:26:49;7.60;;;4.97;;
3567;SDS011;1798;48.486;9.232;2024-03-17T03:29:15;7.63;;;5.03;;
3567;SDS011;1798;48.486;9.232;2024-03-17T03:31:44;16.93;;;4.80;;
3567;SDS011;1798;48.486;9.232;2024-03-17T03:34:10;8.30;;;4.70;;
3567;SDS011;1798;48.486;9.232;2024-03-17T03:36:38;8.00;;;5.40;;
3567;SDS011;1798;48.486;9.232;2024-03-17T03:39:05;10.63;;;5.67;;
3567;SDS011;1798;48.486;9.232;2024-03-17T03:41:35;21.80;;;5.97;;
3567;SDS011;1798;48.486;9.232;2024-03-17T03:44:02;7.83;;;4.80;;
3567;SDS011;1798;48.486;9.232;2024-03-17T03:46:28;12.13;;;5.60;;
3567;SDS011;1798;48.486;9.232;2024-03-17T03:48:56;7.47;;;4.93;;
3567;SDS011;1798;48.486;9.232;2024-03-17T03:51:23;7.60;;;5.33;;
3567;SDS011;1798;48.486;9.232;2024-03-17T03:53:50;12.13;;;5.17;;
3567;SDS011;1798;48.486;9.232;2024-03-17T03:56:17;28.37;;;5.87;;
3567;SDS011;1798;48.486;9.232;2024-03-17T03:58:43;10.10;;;4.97;;
3567;SDS011;1798;48.486;9.232;2024-03-17T04:01:11;7.50;;;5.17;;
3567;SDS011;1798;48.486;9.232;2024-03-17T04:03:38;8.57;;;5.93;;
3567;SDS011;1798;48.486;9.232;2024-03-17T04:06:06;10.97;;;5.60;;
3567;SDS011;1798;48.486;9.232;2024-03-17T04:08:35;10.10;;;4.43;;
3567;SDS011;1798;48.486;9.232;2024-03-17T04:11:02;8.57;;;5.30;;
3567;SDS011;1798;48.486;9.232;2024-03-17T04:13:30;14.83;;;5.27;;
3567;SDS011;1798;48.486;9.232;2024-03-17T04:15:58;9.30;;;5.37;;
3567;SDS011;1798;48.486;9.232;2024-03-17T04:18:25;13.70;;;5.57;;
3567;SDS011;1798;48.486;9.232;2024-03-17T04:20:55;9.57;;;5.77;;
3567;SDS011;1798;48.486;9.232;2024-03-17T04:23:23;9.30;;;5.37;;
3567;SDS011;1798;48.486;9.232;2024-03-17T04:25:50;10.87;;;5.00;;
3567;SDS011;1798;48.486;9.232;2024-03-17T04:28:17;7.40;;;4.83;;
3567;SDS011;1798;48.486;9.232;2024-03-17T04:30:44;17.07;;;4.90;;
3567;SDS011;1798;48.486;9.232;2024-03-17T04:33:11;7.83;;;4.60;;
3567;SDS011;1798;48.486;9.232;2024-03-17T04:35:36;10.90;;;5.20;;
3567;SDS011;1798;48.486;9.232;2024-03-17T04:38:03;8.63;;;5.27;;
3567;SDS011;1798;48.486;9.232;2024-03-17T04:40:32;12.60;;;5.30;;
3567;SDS011;1798;48.486;9.232;2024-03-17T04:42:58;15.23;;;6.33;;
3567;SDS011;1798;48.486;9.232;2024-03-17T04:45:25;7.80;;;5.10;;
3567;SDS011;1798;48.486;9.232;2024-03-17T04:47:52;15.93;;;5.10;;
3567;SDS011;1798;48.486;9.232;2024-03-17T04:50:18;15.10;;;6.03;;
3567;SDS011;1798;48.486;9.232;2024-03-17T04:52:46;10.77;;;4.57;;
3567;SDS011;1798;48.486;9.232;2024-03-17T04:55:14;10.30;;;6.00;;
3567;SDS011;1798;48.486;9.232;2024-03-17T04:57:43;10.97;;;5.17;;
3567;SDS011;1798;48.486;9.232;2024-03-17T05:00:10;6.57;;;4.40;;
3567;SDS011;1798;48.486;9.232;2024-03-17T05:02:39;11.83;;;5.03;;
3567;SDS011;1798;48.486;9.232;2024-03-17T05:05:05;8.30;;;4.20;;
3567;SDS011;1798;48.486;9.232;2024-03-17T05:07:33;8.93;;;5.00;;
3567;SDS011;1798;48.486;9.232;2024-03-17T05:09:59;10.33;;;5.47;;
3567;SDS011;1798;48.486;9.232;2024-03-17T05:12:26;8.70;;;4.87;;
3567;SDS011;1798;48.486;9.232;2024-03-17T05:14:54;6.80;;;4.90;;
3567;SDS011;1798;48.486;9.232;2024-03-17T05:17:21;7.97;;;4.80;;
3567;SDS011;1798;48.486;9.232;2024-03-17T05:19:47;8.37;;;5.17;;
3567;SDS011;1798;48.486;9.232;2024-03-17T05:22:14;7.20;;;4.67;;
3567;SDS011;1798;48.486;9.232;2024-03-17T05:24:40;8.93;;;4.90;;
3567;SDS011;1798;48.486;9.232;2024-03-17T05:27:07;7.27;;;4.30;;
3567;SDS011;1798;48.486;9.232;2024-03-17T05:29:34;19.80;;;5.13;;
3567;SDS011;1798;48.486;9.232;2024-03-17T05:32:04;17.07;;;5.20;;
3567;SDS011;1798;48.486;9.232;2024-03-17T05:34:31;10.43;;;4.80;;
3567;SDS011;1798;48.486;9.232;2024-03-17T05:36:59;11.93;;;5.70;;
3567;SDS011;1798;48.486;9.232;2024-03-17T05:39:26;9.27;;;5.10;;
3567;SDS011;1798;48.486;9.232;2024-03-17T05:41:53;9.43;;;4.83;;
3567;SDS011;1798;48.486;9.232;2024-03-17T05:44:19;9.53;;;4.90;;
3567;SDS011;1798;48.486;9.232;2024-03-17T05:46:46;6.50;;;4.30;;
3567;SDS011;1798;48.486;9.232;2024-03-17T05:49:15;8.63;;;4.57;;
3567;SDS011;1798;48.486;9.232;2024-03-17T05:51:41;8.73;;;4.53;;
3567;SDS011;1798;48.486;9.232;2024-03-17T05:54:08;9.27;;;5.57;;
3567;SDS011;1798;48.486;9.232;2024-03-17T05:56:36;9.77;;;4.43;;
3567;SDS011;1798;48.486;9.232;2024-03-17T05:59:04;9.27;;;5.40;;
3567;SDS011;1798;48.486;9.232;2024-03-17T06:01:30;9.07;;;5.73;;
3567;SDS011;1798;48.486;9.232;2024-03-17T06:03:57;8.00;;;4.50;;
3567;SDS011;1798;48.486;9.232;2024-03-17T06:06:26;8.30;;;5.00;;
3567;SDS011;1798;48.486;9.232;2024-03-17T06:08:53;7.77;;;4.93;;
3567;SDS011;1798;48.486;9.232;2024-03-17T06:11:19;9.17;;;4.60;;
3567;SDS011;1798;48.486;9.232;2024-03-17T06:13:49;8.43;;;4.13;;
3567;SDS011;1798;48.486;9.232;2024-03-17T06:16:15;22.17;;;4.90;;
3567;SDS011;1798;48.486;9.232;2024-03-17T06:18:44;9.03;;;5.10;;
3567;SDS011;1798;48.486;9.232;2024-03-17T06:21:15;7.10;;;4.53;;
3567;SDS011;1798;48.486;9.232;2024-03-17T06:23:43;7.23;;;5.07;;
3567;SDS011;1798;48.486;9.232;2024-03-17T06:26:11;7.13;;;4.80;;
3567;SDS011;1798;48.486;9.232;2024-03-17T06:28:38;9.93;;;4.60;;
3567;SDS011;1798;48.486;9.232;2024-03-17T06:31:05;11.30;;;5.30;;
3567;SDS011;1798;48.486;9.232;2024-03-17T06:33:35;8.97;;;5.03;;
3567;SDS011;1798;48.486;9.232;2024-03-17T06:36:02;8.90;;;5.10;;
3567;SDS011;1798;48.486;9.232;2024-03-17T06:38:30;8.70;;;4.93;;
3567;SDS011;1798;48.486;9.232;2024-03-17T06:40:58;11.40;;;6.43;;
3567;SDS011;1798;48.486;9.232;2024-03-17T06:43:24;11.63;;;5.90;;
3567;SDS011;1798;48.486;9.232;2024-03-17T06:45:56;8.43;;;4.93;;
3567;SDS011;1798;48.486;9.232;2024-03-17T06:48:23;9.00;;;5.90;;
3567;SDS011;1798;48.486;9.232;2024-03-17T06:50:50;11.33;;;6.00;;
3567;SDS011;1798;48.486;9.232;2024-03-17T06:53:17;7.20;;;4.97;;
3567;SDS011;1798;48.486;9.232;2024-03-17T06:55:51;7.03;;;5.20;;
3567;SDS011;1798;48.486;9.232;2024-03-17T06:58:20;11.70;;;6.60;;
3567;SDS011;1798;48.486;9.232;2024-03-17T07:00:51;16.00;;;6.80;;
3567;SDS011;1798;48.486;9.232;2024-03-17T07:03:22;13.60;;;6.23;;
3567;SDS011;1798;48.486;9.232;2024-03-17T07:05:53;10.73;;;5.70;;
3567;SDS011;1798;48.486;9.232;2024-03-17T07:08:20;7.60;;;5.40;;
3567;SDS011;1798;48.486;9.232;2024-03-17T07:10:54;8.87;;;6.03;;
3567;SDS011;1798;48.486;9.232;2024-03-17T07:13:23;10.13;;;5.93;;
3567;SDS011;1798;48.486;9.232;2024-03-17T07:15:50;9.17;;;5.80;;
3567;SDS011;1798;48.486;9.232;2024-03-17T07:18:16;13.03;;;5.93;;
3567;SDS011;1798;48.486;9.232;2024-03-17T07:20:43;9.90;;;6.50;;
3567;SDS011;1798;48.486;9.232;2024-03-17T07:23:12;11.97;;;6.00;;
3567;SDS011;1798;48.486;9.232;2024-03-17T07:25:39;12.00;;;5.37;;
3567;SDS011;1798;48.486;9.232;2024-03-17T07:28:05;14.07;;;5.03;;
3567;SDS011;1798;48.486;9.232;2024-03-17T07:30:34;8.47;;;5.40;;
3567;SDS011;1798;48.486;9.232;2024-03-17T07:33:00;9.10;;;6.13;;
3567;SDS011;1798;48.486;9.232;2024-03-17T07:35:27;13.37;;;5.53;;
3567;SDS011;1798;48.486;9.232;2024-03-17T07:37:54;9.03;;;5.73;;
3567;SDS011;1798;48.486;9.232;2024-03-17T07:40:20;12.63;;;6.13;;
3567;SDS011;1798;48.486;9.232;2024-03-17T07:42:47;12.33;;;6.00;;
3567;SDS011;1798;48.486;9.232;2024-03-17T07:45:14;8.60;;;5.50;;
3567;SDS011;1798;48.486;9.232;2024-03-17T07:47:43;9.30;;;5.43;;
3567;SDS011;1798;48.486;9.232;2024-03-17T07:50:09;6.50;;;4.33;;
3567;SDS011;1798;48.486;9.232;2024-03-17T07:52:36;8.77;;;4.90;;
3567;SDS011;1798;48.486;9.232;2024-03-17T07:55:03;9.33;;;4.43;;
3567;SDS011;1798;48.486;9.232;2024-03-17T07:57:30;9.13;;;5.10;;
3567;SDS011;1798;48.486;9.232;2024-03-17T07:59:56;11.00;;;4.60;;
3567;SDS011;1798;48.486;9.232;2024-03-17T08:02:23;20.50;;;5.43;;
3567;SDS011;1798;48.486;9.232;2024-03-17T08:04:51;16.53;;;4.77;;
3567;SDS011;1798;48.486;9.232;2024-03-17T08:07:17;10.63;;;5.33;;
3567;SDS011;1798;48.486;9.232;2024-03-17T08:09:44;8.10;;;5.23;;
3567;SDS011;1798;48.486;9.232;2024-03-17T08:12:11;12.23;;;6.40;;
3567;SDS011;1798;48.486;9.232;2024-03-17T08:14:38;11.67;;;6.03;;
3567;SDS011;1798;48.486;9.232;2024-03-17T08:17:04;8.93;;;5.80;;
3567;SDS011;1798;48.486;9.232;2024-03-17T08:19:32;11.23;;;5.30;;
3567;SDS011;1798;48.486;9.232;2024-03-17T08:22:00;10.13;;;6.10;;
3567;SDS011;1798;48.486;9.232;2024-03-17T08:24:27;15.30;;;7.03;;
3567;SDS011;1798;48.486;9.232;2024-03-17T08:26:54;16.10;;;6.70;;
3567;SDS011;1798;48.486;9.232;2024-03-17T08:29:21;8.40;;;5.20;;
3567;SDS011;1798;48.486;9.232;2024-03-17T08:31:47;13.80;;;8.10;;
3567;SDS011;1798;48.486;9.232;2024-03-17T08:34:14;8.53;;;5.53;;
3567;SDS011;1798;48.486;9.232;2024-03-17T08:36:41;14.80;;;6.23;;
3567;SDS011;1798;48.486;9.232;2024-03-17T08:39:09;8.60;;;5.03;;
3567;SDS011;1798;48.486;9.232;2024-03-17T08:41:36;9.23;;;6.10;;
3567;SDS011;1798;48.486;9.232;2024-03-17T08:44:03;9.80;;;5.47;;
3567;SDS011;1798;48.486;9.232;2024-03-17T08:46:31;9.57;;;5.50;;
3567;SDS011;1798;48.486;9.232;2024-03-17T08:48:58;6.70;;;4.57;;
3567;SDS011;1798;48.486;9.232;2024-03-17T08:51:25;8.97;;;5.77;;
3567;SDS011;1798;48.486;9.232;2024-03-17T08:53:52;12.00;;;7.20;;
3567;SDS011;1798;48.486;9.232;2024-03-17T08:56:20;16.50;;;7.30;;
3567;SDS011;1798;48.486;9.232;2024-03-17T08:58:48;10.20;;;5.40;;
3567;SDS011;1798;48.486;9.232;2024-03-17T09:01:15;8.07;;;4.87;;
3567;SDS011;1798;48.486;9.232;2024-03-17T09:03:42;11.87;;;7.43;;
3567;SDS011;1798;48.486;9.232;2024-03-17T09:06:13;8.20;;;4.73;;
3567;SDS011;1798;48.486;9.232;2024-03-17T09:08:41;8.50;;;5.40;;
3567;SDS011;1798;48.486;9.232;2024-03-17T09:11:11;15.23;;;7.20;;
3567;SDS011;1798;48.486;9.232;2024-03-17T09:13:40;14.43;;;5.47;;
3567;SDS011;1798;48.486;9.232;2024-03-17T09:16:06;8.30;;;5.47;;
3567;SDS011;1798;48.486;9.232;2024-03-17T09:18:36;9.60;;;5.70;;
3567;SDS011;1798;48.486;9.232;2024-03-17T09:21:03;20.83;;;7.67;;
3567;SDS011;1798;48.486;9.232;2024-03-17T09:23:33;12.30;;;5.50;;
3567;SDS011;1798;48.486;9.232;2024-03-17T09:26:00;7.87;;;4.90;;
3567;SDS011;1798;48.486;9.232;2024-03-17T09:28:33;11.53;;;5.23;;
3567;SDS011;1798;48.486;9.232;2024-03-17T09:31:02;11.63;;;5.53;;
3567;SDS011;1798;48.486;9.232;2024-03-17T09:33:34;11.03;;;6.30;;
3567;SDS011;1798;48.486;9.232;2024-03-17T09:36:04;14.87;;;5.23;;
3567;SDS011;1798;48.486;9.232;2024-03-17T09:38:32;10.87;;;5.70;;
3567;SDS011;1798;48.486;9.232;2024-03-17T09:40:59;7.67;;;5.10;;
3567;SDS011;1798;48.486;9.232;2024-03-17T09:43:26;10.60;;;6.57;;
3567;SDS011;1798;48.486;9.232;2024-03-17T09:45:54;9.60;;;5.90;;
3567;SDS011;1798;48.486;9.232;2024-03-17T09:48:24;7.70;;;4.80;;
3567;SDS011;1798;48.486;9.232;2024-03-17T09:50:52;11.33;;;5.50;;
3567;SDS011;1798;48.486;9.232;2024-03-17T09:53:22;8.33;;;4.20;;
3567;SDS011;1798;48.486;9.232;2024-03-17T09:55:50;11.57;;;7.07;;
3567;SDS011;1798;48.486;9.232;2024-03-17T09:58:17;9.27;;;6.50;;
3567;SDS011;1798;48.486;9.232;2024-03-17T10:00:44;12.03;;;6.13;;
3567;SDS011;1798;48.486;9.232;2024-03-17T10:03:11;19.77;;;7.53;;
3567;SDS011;1798;48.486;9.232;2024-03-17T10:05:39;18.90;;;7.97;;
3567;SDS011;1798;48.486;9.232;2024-03-17T10:08:06;9.47;;;5.60;;
3567;SDS011;1798;48.486;9.232;2024-03-17T10:10:33;13.77;;;9.13;;
3567;SDS011;1798;48.486;9.232;2024-03-17T10:13:00;9.93;;;5.87;;
3567;SDS011;1798;48.486;9.232;2024-03-17T10:15:27;10.90;;;6.37;;
3567;SDS011;1798;48.486;9.232;2024-03-17T10:17:54;12.27;;;6.00;;
3567;SDS011;1798;48.486;9.232;2024-03-17T10:20:21;11.00;;;5.20;;
3567;SDS011;1798;48.486;9.232;2024-03-17T10:22:58;13.00;;;6.83;;
3567;SDS011;1798;48.486;9.232;2024-03-17T10:25:26;11.17;;;5.70;;
3567;SDS011;1798;48.486;9.232;2024-03-17T10:27:53;10.23;;;5.27;;
3567;SDS011;1798;48.486;9.232;2024-03-17T10:30:20;13.53;;;5.30;;
3567;SDS011;1798;48.486;9.232;2024-03-17T10:32:52;16.40;;;6.83;;
3567;SDS011;1798;48.486;9.232;2024-03-17T10:35:32;8.27;;;5.07;;
3567;SDS011;1798;48.486;9.232;2024-03-17T10:38:01;16.33;;;7.63;;
3567;SDS011;1798;48.486;9.232;2024-03-17T10:40:31;12.63;;;5.60;;
3567;SDS011;1798;48.486;9.232;2024-03-17T10:43:01;15.63;;;7.17;;
3567;SDS011;1798;48.486;9.232;2024-03-17T10:45:28;10.03;;;5.70;;
3567;SDS011;1798;48.486;9.232;2024-03-17T10:47:59;20.60;;;7.10;;
3567;SDS011;1798;48.486;9.232;2024-03-17T10:50:26;10.90;;;6.63;;
3567;SDS011;1798;48.486;9.232;2024-03-17T10:52:58;18.60;;;7.57;;
3567;SDS011;1798;48.486;9.232;2024-03-17T10:55:32;11.93;;;6.07;;
3567;SDS011;1798;48.486;9.232;2024-03-17T10:58:11;12.43;;;5.90;;
3567;SDS011;1798;48.486;9.232;2024-03-17T11:00:44;10.33;;;5.73;;
3567;SDS011;1798;48.486;9.232;2024-03-17T11:03:12;11.33;;;5.20;;
3567;SDS011;1798;48.486;9.232;2024-03-17T11:05:40;10.53;;;5.93;;
3567;SDS011;1798;48.486;9.232;2024-03-17T11:08:09;14.67;;;5.53;;
3567;SDS011;1798;48.486;9.232;2024-03-17T11:10:41;9.97;;;5.10;;
3567;SDS011;1798;48.486;9.232;2024-03-17T11:13:22;14.17;;;8.60;;
3567;SDS011;1798;48.486;9.232;2024-03-17T11:15:49;17.67;;;8.93;;
3567;SDS011;1798;48.486;9.232;2024-03-17T11:18:29;14.73;;;8.00;;
3567;SDS011;1798;48.486;9.232;2024-03-17T11:21:00;17.37;;;7.80;;
3567;SDS011;1798;48.486;9.232;2024-03-17T11:23:34;12.53;;;6.20;;
3567;SDS011;1798;48.486;9.232;2024-03-17T11:26:03;17.57;;;6.43;;
3567;SDS011;1798;48.486;9.232;2024-03-17T11:28:46;19.43;;;8.03;;
3567;SDS011;1798;48.486;9.232;2024-03-17T11:34:06;16.53;;;6.50;;
3567;SDS011;1798;48.486;9.232;2024-03-17T11:36:33;16.80;;;7.13;;
3567;SDS011;1798;48.486;9.232;2024-03-17T11:39:03;9.53;;;5.07;;
3567;SDS011;1798;48.486;9.232;2024-03-17T11:41:37;12.30;;;5.93;;
3567;SDS011;1798;48.486;9.232;2024-03-17T11:44:14;16.40;;;5.70;;
3567;SDS011;1798;48.486;9.232;2024-03-17T11:46:43;15.23;;;5.87;;
3567;SDS011;1798;48.486;9.232;2024-03-17T11:49:16;9.97;;;5.47;;
3567;SDS011;1798;48.486;9.232;2024-03-17T11:51:45;18.03;;;5.90;;
3567;SDS011;1798;48.486;9.232;2024-03-17T11:54:14;18.83;;;7.17;;
3567;SDS011;1798;48.486;9.232;2024-03-17T11:56:44;16.07;;;6.90;;
3567;SDS011;1798;48.486;9.232;2024-03-17T11:59:10;13.80;;;5.70;;
3567;SDS011;1798;48.486;9.232;2024-03-17T12:01:37;11.77;;;6.20;;
3567;SDS011;1798;48.486;9.232;2024-03-17T12:04:04;13.10;;;6.10;;
3567;SDS011;1798;48.486;9.232;2024-03-17T12:06:31;12.70;;;4.80;;
3567;SDS011;1798;48.486;9.232;2024-03-17T12:09:07;18.23;;;6.73;;
3567;SDS011;1798;48.486;9.232;2024-03-17T12:11:37;21.70;;;5.00;;
3567;SDS011;1798;48.486;9.232;2024-03-17T12:14:18;13.23;;;5.47;;
3567;SDS011;1798;48.486;9.232;2024-03-17T12:16:49;9.17;;;5.37;;
3567;SDS011;1798;48.486;9.232;2024-03-17T12:19:15;11.80;;;5.77;;
3567;SDS011;1798;48.486;9.232;2024-03-17T12:21:43;12.93;;;4.87;;
3567;SDS011;1798;48.486;9.232;2024-03-17T12:24:11;12.77;;;6.10;;
3567;SDS011;1798;48.486;9.232;2024-03-17T12:26:42;15.10;;;6.63;;
3567;SDS011;1798;48.486;9.232;2024-03-17T12:29:25;12.67;;;5.20;;
3567;SDS011;1798;48.486;9.232;2024-03-17T12:31:55;10.37;;;5.30;;
3567;SDS011;1798;48.486;9.232;2024-03-17T12:34:22;9.47;;;5.50;;
3567;SDS011;1798;48.486;9.232;2024-03-17T12:36:49;9.07;;;5.37;;
3567;SDS011;1798;48.486;9.232;2024-03-17T12:39:17;11.10;;;5.60;;
3567;SDS011;1798;48.486;9.232;2024-03-17T12:41:54;9.67;;;5.77;;
3567;SDS011;1798;48.486;9.232;2024-03-17T12:44:30;23.33;;;6.40;;
3567;SDS011;1798;48.486;9.232;2024-03-17T12:46:56;13.60;;;6.37;;
3567;SDS011;1798;48.486;9.232;2024-03-17T12:49:25;14.47;;;6.43;;
3567;SDS011;1798;48.486;9.232;2024-03-17T12:51:51;9.50;;;5.37;;
3567;SDS011;1798;48.486;9.232;2024-03-17T12:54:19;10.60;;;5.97;;
3567;SDS011;1798;48.486;9.232;2024-03-17T12:56:47;10.80;;;5.93;;
3567;SDS011;1798;48.486;9.232;2024-03-17T12:59:40;10.83;;;5.40;;
3567;SDS011;1798;48.486;9.232;2024-03-17T13:02:33;9.50;;;4.73;;
3567;SDS011;1798;48.486;9.232;2024-03-17T13:05:10;14.07;;;4.70;;
3567;SDS011;1798;48.486;9.232;2024-03-17T13:07:40;11.37;;;4.63;;
3567;SDS011;1798;48.486;9.232;2024-03-17T13:10:07;13.17;;;4.70;;
3567;SDS011;1798;48.486;9.232;2024-03-17T13:12:35;8.87;;;4.23;;
3567;SDS011;1798;48.486;9.232;2024-03-17T13:15:02;10.07;;;5.10;;
3567;SDS011;1798;48.486;9.232;2024-03-17T13:17:30;17.53;;;5.67;;
3567;SDS011;1798;48.486;9.232;2024-03-17T13:19:58;13.07;;;5.50;;
3567;SDS011;1798;48.486;9.232;2024-03-17T13:22:25;11.53;;;5.00;;
3567;SDS011;1798;48.486;9.232;2024-03-17T13:24:52;22.60;;;4.63;;
3567;SDS011;1798;48.486;9.232;2024-03-17T13:27:18;10.43;;;4.30;;
3567;SDS011;1798;48.486;9.232;2024-03-17T13:29:48;7.23;;;3.40;;
3567;SDS011;1798;48.486;9.232;2024-03-17T13:32:15;8.30;;;4.00;;
3567;SDS011;1798;48.486;9.232;2024-03-17T13:34:42;11.83;;;3.73;;
3567;SDS011;1798;48.486;9.232;2024-03-17T13:37:09;11.30;;;3.13;;
3567;SDS011;1798;48.486;9.232;2024-03-17T13:39:35;9.13;;;4.10;;
3567;SDS011;1798;48.486;9.232;2024-03-17T13:42:02;13.30;;;4.10;;
3567;SDS011;1798;48.486;9.232;2024-03-17T13:44:29;13.00;;;3.73;;
3567;SDS011;1798;48.486;9.232;2024-03-17T13:46:57;12.63;;;4.73;;
3567;SDS011;1798;48.486;9.232;2024-03-17T13:49:26;8.53;;;3.80;;
3567;SDS011;1798;48.486;9.232;2024-03-17T13:51:53;13.37;;;4.70;;
3567;SDS011;1798;48.486;9.232;2024-03-17T13:54:20;9.23;;;3.40;;
3567;SDS011;1798;48.486;9.232;2024-03-17T13:56:47;8.20;;;3.63;;
3567;SDS011;1798;48.486;9.232;2024-03-17T13:59:14;14.77;;;4.57;;
3567;SDS011;1798;48.486;9.232;2024-03-17T14:01:41;13.70;;;4.83;;
3567;SDS011;1798;48.486;9.232;2024-03-17T14:04:11;15.90;;;4.90;;
3567;SDS011;1798;48.486;9.232;2024-03-17T14:06:39;9.83;;;3.63;;
3567;SDS011;1798;48.486;9.232;2024-03-17T14:09:06;7.10;;;3.73;;
3567;SDS011;1798;48.486;9.232;2024-03-17T14:11:34;21.17;;;5.90;;
3567;SDS011;1798;48.486;9.232;2024-03-17T14:14:01;9.13;;;4.30;;
3567;SDS011;1798;48.486;9.232;2024-03-17T14:16:29;10.70;;;3.40;;
3567;SDS011;1798;48.486;9.232;2024-03-17T14:18:56;11.63;;;3.80;;
3567;SDS011;1798;48.486;9.232;2024-03-17T14:21:24;9.50;;;4.37;;
3567;SDS011;1798;48.486;9.232;2024-03-17T14:23:51;7.20;;;3.40;;
3567;SDS011;1798;48.486;9.232;2024-03-17T14:26:18;11.13;;;4.53;;
3567;SDS011;1798;48.486;9.232;2024-03-17T14:28:44;11.13;;;4.53;;
3567;SDS011;1798;48.486;9.232;2024-03-17T14:31:11;6.20;;;3.67;;
3567;SDS011;1798;48.486;9.232;2024-03-17T14:33:37;8.40;;;4.70;;
3567;SDS011;1798;48.486;9.232;2024-03-17T14:36:04;8.70;;;3.80;;
3567;SDS011;1798;48.486;9.232;2024-03-17T14:38:33;9.20;;;3.30;;
3567;SDS011;1798;48.486;9.232;2024-03-17T14:41:00;15.00;;;3.70;;
3567;SDS011;1798;48.486;9.232;2024-03-17T14:43:26;11.70;;;3.50;;
3567;SDS011;1798;48.486;9.232;2024-03-17T14:45:53;12.57;;;4.50;;
3567;SDS011;1798;48.486;9.232;2024-03-17T14:48:19;11.10;;;3.73;;
3567;SDS011;1798;48.486;9.232;2024-03-17T14:50:46;12.33;;;3.20;;
3567;SDS011;1798;48.486;9.232;2024-03-17T14:53:13;8.37;;;4.00;;
3567;SDS011;1798;48.486;9.232;2024-03-17T14:55:41;15.90;;;4.00;;
3567;SDS011;1798;48.486;9.232;2024-03-17T14:58:09;13.07;;;4.40;;
3567;SDS011;1798;48.486;9.232;2024-03-17T15:00:37;8.93;;;3.57;;
3567;SDS011;1798;48.486;9.232;2024-03-17T15:03:04;7.67;;;3.50;;
3567;SDS011;1798;48.486;9.232;2024-03-17T15:05:32;8.83;;;3.87;;
3567;SDS011;1798;48.486;9.232;2024-03-17T15:07:59;8.80;;;4.10;;
3567;SDS011;1798;48.486;9.232;2024-03-17T15:10:27;18.20;;;3.70;;
3567;SDS011;1798;48.486;9.232;2024-03-17T15:12:55;14.00;;;4.20;;
3567;SDS011;1798;48.486;9.232;2024-03-17T15:15:22;9.80;;;4.10;;